sensor_id;sensor_type;location;lat;lon;timestamp;P1;durP1;ratioP1;P2;durP2;ratioP2
23402;SDS011;11874;48.228;11.684;2022-10-04T00:01:03;9.85;;;5.88;;
23402;SDS011;11874;48.228;11.684;2022-10-04T00:03:35;6.57;;;5.18;;
23402;SDS011;11874;48.228;11.684;2022-10-04T00:06:11;7.60;;;5.57;;
23402;SDS011;11874;48.228;11.684;2022-10-04T00:08:44;11.68;;;5.80;;
23402;SDS011;11874;48.228;11.684;2022-10-04T00:11:17;8.73;;;5.72;;
23402;SDS011;11874;48.228;11.684;2022-10-04T00:13:51;8.30;;;5.53;;
23402;SDS011;11874;48.228;11.684;2022-10-04T00:16:25;9.70;;;6.18;;
23402;SDS011;11874;48.228;11.684;2022-10-04T00:19:01;8.75;;;5.50;;
23402;SDS011;11874;48.228;11.684;2022-10-04T00:31:10;9.95;;;6.38;;
23402;SDS011;11874;48.228;11.684;2022-10-04T00:33:52;8.60;;;6.32;;
23402;SDS011;11874;48.228;11.684;2022-10-04T00:36:34;9.13;;;5.68;;
23402;SDS011;11874;48.228;11.684;2022-10-04T00:39:16;9.23;;;5.78;;
23402;SDS011;11874;48.228;11.684;2022-10-04T00:42:05;8.98;;;6.25;;
23402;SDS011;11874;48.228;11.684;2022-10-04T00:44:53;7.50;;;5.72;;
23402;SDS011;11874;48.228;11.684;2022-10-04T00:47:27;8.50;;;5.45;;
23402;SDS011;11874;48.228;11.684;2022-10-04T00:50:01;8.52;;;6.45;;
23402;SDS011;11874;48.228;11.684;2022-10-04T00:52:35;8.88;;;5.43;;
23402;SDS011;11874;48.228;11.684;2022-10-04T00:55:08;8.07;;;5.30;;
23402;SDS011;11874;48.228;11.684;2022-10-04T00:57:48;7.93;;;5.68;;
23402;SDS011;11874;48.228;11.684;2022-10-04T01:00:19;7.22;;;5.05;;
23402;SDS011;11874;48.228;11.684;2022-10-04T01:02:49;7.78;;;5.72;;
23402;SDS011;11874;48.228;11.684;2022-10-04T01:05:21;7.77;;;5.60;;
23402;SDS011;11874;48.228;11.684;2022-10-04T01:07:56;8.05;;;5.68;;
23402;SDS011;11874;48.228;11.684;2022-10-04T01:10:31;9.07;;;6.10;;
23402;SDS011;11874;48.228;11.684;2022-10-04T01:13:06;7.00;;;5.55;;
23402;SDS011;11874;48.228;11.684;2022-10-04T01:15:40;6.75;;;5.78;;
23402;SDS011;11874;48.228;11.684;2022-10-04T01:18:12;6.55;;;4.95;;
23402;SDS011;11874;48.228;11.684;2022-10-04T01:20:51;7.97;;;5.50;;
23402;SDS011;11874;48.228;11.684;2022-10-04T01:23:35;7.53;;;5.40;;
23402;SDS011;11874;48.228;11.684;2022-10-04T01:26:06;6.72;;;5.43;;
23402;SDS011;11874;48.228;11.684;2022-10-04T01:29:11;9.43;;;5.30;;
23402;SDS011;11874;48.228;11.684;2022-10-04T01:31:41;8.23;;;5.72;;
23402;SDS011;11874;48.228;11.684;2022-10-04T01:34:12;7.90;;;5.30;;
23402;SDS011;11874;48.228;11.684;2022-10-04T01:36:41;10.80;;;5.20;;
23402;SDS011;11874;48.228;11.684;2022-10-04T01:39:14;7.28;;;5.55;;
23402;SDS011;11874;48.228;11.684;2022-10-04T01:41:44;7.88;;;5.25;;
23402;SDS011;11874;48.228;11.684;2022-10-04T01:44:18;7.93;;;5.40;;
23402;SDS011;11874;48.228;11.684;2022-10-04T01:46:51;7.35;;;5.93;;
23402;SDS011;11874;48.228;11.684;2022-10-04T01:49:24;7.35;;;5.22;;
23402;SDS011;11874;48.228;11.684;2022-10-04T01:51:56;8.18;;;5.20;;
23402;SDS011;11874;48.228;11.684;2022-10-04T01:54:31;8.73;;;5.60;;
23402;SDS011;11874;48.228;11.684;2022-10-04T01:57:02;7.57;;;4.93;;
23402;SDS011;11874;48.228;11.684;2022-10-04T01:59:38;7.93;;;5.43;;
23402;SDS011;11874;48.228;11.684;2022-10-04T02:02:15;9.88;;;5.35;;
23402;SDS011;11874;48.228;11.684;2022-10-04T02:04:50;9.32;;;5.95;;
23402;SDS011;11874;48.228;11.684;2022-10-04T02:07:20;11.35;;;6.10;;
23402;SDS011;11874;48.228;11.684;2022-10-04T02:09:54;6.70;;;5.43;;
23402;SDS011;11874;48.228;11.684;2022-10-04T02:12:25;6.50;;;4.88;;
23402;SDS011;11874;48.228;11.684;2022-10-04T02:14:57;8.45;;;5.68;;
23402;SDS011;11874;48.228;11.684;2022-10-04T02:17:28;8.38;;;5.80;;
23402;SDS011;11874;48.228;11.684;2022-10-04T02:19:57;7.95;;;5.20;;
23402;SDS011;11874;48.228;11.684;2022-10-04T02:22:27;9.30;;;5.35;;
23402;SDS011;11874;48.228;11.684;2022-10-04T02:24:57;6.88;;;5.50;;
23402;SDS011;11874;48.228;11.684;2022-10-04T02:27:25;10.07;;;5.50;;
23402;SDS011;11874;48.228;11.684;2022-10-04T02:29:58;8.13;;;5.07;;
23402;SDS011;11874;48.228;11.684;2022-10-04T02:32:31;6.43;;;5.22;;
23402;SDS011;11874;48.228;11.684;2022-10-04T02:35:17;9.40;;;5.00;;
23402;SDS011;11874;48.228;11.684;2022-10-04T02:37:46;6.95;;;5.50;;
23402;SDS011;11874;48.228;11.684;2022-10-04T02:40:17;8.18;;;5.85;;
23402;SDS011;11874;48.228;11.684;2022-10-04T02:42:49;6.93;;;5.13;;
23402;SDS011;11874;48.228;11.684;2022-10-04T02:45:26;7.93;;;5.75;;
23402;SDS011;11874;48.228;11.684;2022-10-04T02:48:04;9.60;;;5.85;;
23402;SDS011;11874;48.228;11.684;2022-10-04T02:50:44;8.02;;;5.70;;
23402;SDS011;11874;48.228;11.684;2022-10-04T02:53:17;7.40;;;5.32;;
23402;SDS011;11874;48.228;11.684;2022-10-04T02:55:53;8.23;;;5.72;;
23402;SDS011;11874;48.228;11.684;2022-10-04T02:58:22;7.47;;;4.85;;
23402;SDS011;11874;48.228;11.684;2022-10-04T03:00:54;6.63;;;5.68;;
23402;SDS011;11874;48.228;11.684;2022-10-04T03:03:24;8.52;;;4.97;;
23402;SDS011;11874;48.228;11.684;2022-10-04T03:06:04;6.78;;;5.32;;
23402;SDS011;11874;48.228;11.684;2022-10-04T03:08:35;7.88;;;5.75;;
23402;SDS011;11874;48.228;11.684;2022-10-04T03:11:12;7.28;;;5.40;;
23402;SDS011;11874;48.228;11.684;2022-10-04T03:13:43;7.90;;;5.45;;
23402;SDS011;11874;48.228;11.684;2022-10-04T03:16:12;6.70;;;5.07;;
23402;SDS011;11874;48.228;11.684;2022-10-04T03:18:41;8.80;;;5.15;;
23402;SDS011;11874;48.228;11.684;2022-10-04T03:21:11;7.15;;;5.07;;
23402;SDS011;11874;48.228;11.684;2022-10-04T03:23:41;6.07;;;4.85;;
23402;SDS011;11874;48.228;11.684;2022-10-04T03:26:15;9.57;;;5.13;;
23402;SDS011;11874;48.228;11.684;2022-10-04T03:28:52;6.13;;;4.65;;
23402;SDS011;11874;48.228;11.684;2022-10-04T03:31:20;5.25;;;4.50;;
23402;SDS011;11874;48.228;11.684;2022-10-04T03:33:48;6.35;;;4.57;;
23402;SDS011;11874;48.228;11.684;2022-10-04T03:36:16;6.88;;;4.47;;
23402;SDS011;11874;48.228;11.684;2022-10-04T03:38:45;6.30;;;4.43;;
23402;SDS011;11874;48.228;11.684;2022-10-04T03:41:16;6.53;;;4.07;;
23402;SDS011;11874;48.228;11.684;2022-10-04T03:43:45;6.70;;;4.72;;
23402;SDS011;11874;48.228;11.684;2022-10-04T03:46:15;5.68;;;4.43;;
23402;SDS011;11874;48.228;11.684;2022-10-04T03:48:48;5.20;;;4.40;;
23402;SDS011;11874;48.228;11.684;2022-10-04T03:51:19;5.88;;;4.35;;
23402;SDS011;11874;48.228;11.684;2022-10-04T03:53:50;6.60;;;4.75;;
23402;SDS011;11874;48.228;11.684;2022-10-04T03:56:24;6.18;;;4.45;;
23402;SDS011;11874;48.228;11.684;2022-10-04T03:58:54;5.95;;;4.07;;
23402;SDS011;11874;48.228;11.684;2022-10-04T04:01:26;5.00;;;4.07;;
23402;SDS011;11874;48.228;11.684;2022-10-04T04:04:05;5.97;;;4.28;;
23402;SDS011;11874;48.228;11.684;2022-10-04T04:06:40;6.07;;;4.55;;
23402;SDS011;11874;48.228;11.684;2022-10-04T04:09:15;6.55;;;4.30;;
23402;SDS011;11874;48.228;11.684;2022-10-04T04:11:49;4.88;;;3.80;;
23402;SDS011;11874;48.228;11.684;2022-10-04T04:14:20;7.40;;;4.22;;
23402;SDS011;11874;48.228;11.684;2022-10-04T04:16:51;5.30;;;4.15;;
23402;SDS011;11874;48.228;11.684;2022-10-04T04:19:21;6.22;;;4.18;;
23402;SDS011;11874;48.228;11.684;2022-10-04T04:21:52;4.43;;;3.88;;
23402;SDS011;11874;48.228;11.684;2022-10-04T04:24:23;4.65;;;3.17;;
23402;SDS011;11874;48.228;11.684;2022-10-04T04:26:56;5.15;;;3.53;;
23402;SDS011;11874;48.228;11.684;2022-10-04T04:29:31;6.38;;;3.70;;
23402;SDS011;11874;48.228;11.684;2022-10-04T04:32:03;5.13;;;3.92;;
23402;SDS011;11874;48.228;11.684;2022-10-04T04:34:43;5.30;;;3.40;;
23402;SDS011;11874;48.228;11.684;2022-10-04T04:37:18;4.25;;;3.65;;
23402;SDS011;11874;48.228;11.684;2022-10-04T04:39:47;7.00;;;3.83;;
23402;SDS011;11874;48.228;11.684;2022-10-04T04:42:22;3.78;;;3.15;;
23402;SDS011;11874;48.228;11.684;2022-10-04T04:44:57;7.72;;;4.43;;
23402;SDS011;11874;48.228;11.684;2022-10-04T04:47:28;6.28;;;4.28;;
23402;SDS011;11874;48.228;11.684;2022-10-04T04:50:02;7.33;;;3.90;;
23402;SDS011;11874;48.228;11.684;2022-10-04T04:52:33;5.78;;;4.85;;
23402;SDS011;11874;48.228;11.684;2022-10-04T04:55:03;6.38;;;3.85;;
23402;SDS011;11874;48.228;11.684;2022-10-04T04:57:34;4.93;;;4.13;;
23402;SDS011;11874;48.228;11.684;2022-10-04T05:00:06;6.35;;;3.90;;
23402;SDS011;11874;48.228;11.684;2022-10-04T05:02:49;4.90;;;4.13;;
23402;SDS011;11874;48.228;11.684;2022-10-04T05:05:24;5.95;;;4.68;;
23402;SDS011;11874;48.228;11.684;2022-10-04T05:08:03;6.63;;;4.40;;
23402;SDS011;11874;48.228;11.684;2022-10-04T05:10:40;6.00;;;4.57;;
23402;SDS011;11874;48.228;11.684;2022-10-04T05:13:12;6.80;;;4.88;;
23402;SDS011;11874;48.228;11.684;2022-10-04T05:15:42;8.00;;;5.05;;
23402;SDS011;11874;48.228;11.684;2022-10-04T05:18:19;6.70;;;4.50;;
23402;SDS011;11874;48.228;11.684;2022-10-04T05:20:54;9.80;;;4.68;;
23402;SDS011;11874;48.228;11.684;2022-10-04T05:23:23;7.15;;;4.32;;
23402;SDS011;11874;48.228;11.684;2022-10-04T05:25:51;5.93;;;4.32;;
23402;SDS011;11874;48.228;11.684;2022-10-04T05:28:20;9.18;;;4.82;;
23402;SDS011;11874;48.228;11.684;2022-10-04T05:30:55;6.22;;;4.40;;
23402;SDS011;11874;48.228;11.684;2022-10-04T05:33:37;7.47;;;4.00;;
23402;SDS011;11874;48.228;11.684;2022-10-04T05:39:15;4.72;;;4.00;;
23402;SDS011;11874;48.228;11.684;2022-10-04T05:41:51;7.53;;;3.92;;
23402;SDS011;11874;48.228;11.684;2022-10-04T05:44:26;7.75;;;4.32;;
23402;SDS011;11874;48.228;11.684;2022-10-04T05:46:55;5.70;;;3.25;;
23402;SDS011;11874;48.228;11.684;2022-10-04T05:49:27;7.57;;;4.18;;
23402;SDS011;11874;48.228;11.684;2022-10-04T05:51:58;6.53;;;4.00;;
23402;SDS011;11874;48.228;11.684;2022-10-04T05:54:28;6.15;;;4.00;;
23402;SDS011;11874;48.228;11.684;2022-10-04T06:00:13;7.65;;;4.70;;
23402;SDS011;11874;48.228;11.684;2022-10-04T06:02:54;8.60;;;4.10;;
23402;SDS011;11874;48.228;11.684;2022-10-04T06:05:46;5.80;;;3.83;;
23402;SDS011;11874;48.228;11.684;2022-10-04T06:08:21;10.65;;;4.22;;
23402;SDS011;11874;48.228;11.684;2022-10-04T06:11:11;6.82;;;4.38;;
23402;SDS011;11874;48.228;11.684;2022-10-04T06:16:44;9.30;;;4.82;;
23402;SDS011;11874;48.228;11.684;2022-10-04T06:19:44;11.32;;;4.95;;
23402;SDS011;11874;48.228;11.684;2022-10-04T06:22:22;7.32;;;4.43;;
23402;SDS011;11874;48.228;11.684;2022-10-04T06:24:53;6.60;;;4.55;;
23402;SDS011;11874;48.228;11.684;2022-10-04T06:27:25;11.05;;;4.55;;
23402;SDS011;11874;48.228;11.684;2022-10-04T06:29:59;5.47;;;4.30;;
23402;SDS011;11874;48.228;11.684;2022-10-04T06:32:34;5.53;;;4.18;;
23402;SDS011;11874;48.228;11.684;2022-10-04T06:35:28;9.00;;;4.50;;
23402;SDS011;11874;48.228;11.684;2022-10-04T06:38:29;7.53;;;4.10;;
23402;SDS011;11874;48.228;11.684;2022-10-04T06:44:12;9.40;;;5.10;;
23402;SDS011;11874;48.228;11.684;2022-10-04T06:47:05;7.97;;;4.63;;
23402;SDS011;11874;48.228;11.684;2022-10-04T06:49:46;8.75;;;4.53;;
23402;SDS011;11874;48.228;11.684;2022-10-04T06:52:24;6.40;;;4.50;;
23402;SDS011;11874;48.228;11.684;2022-10-04T06:55:24;7.03;;;4.88;;
23402;SDS011;11874;48.228;11.684;2022-10-04T06:58:17;9.70;;;4.57;;
23402;SDS011;11874;48.228;11.684;2022-10-04T07:01:00;9.70;;;5.68;;
23402;SDS011;11874;48.228;11.684;2022-10-04T07:03:36;13.05;;;6.43;;
23402;SDS011;11874;48.228;11.684;2022-10-04T07:06:18;8.38;;;5.35;;
23402;SDS011;11874;48.228;11.684;2022-10-04T07:08:50;14.15;;;5.47;;
23402;SDS011;11874;48.228;11.684;2022-10-04T07:11:22;8.20;;;5.13;;
23402;SDS011;11874;48.228;11.684;2022-10-04T07:16:24;6.50;;;4.47;;
23402;SDS011;11874;48.228;11.684;2022-10-04T07:18:59;8.63;;;5.28;;
23402;SDS011;11874;48.228;11.684;2022-10-04T07:21:38;8.05;;;5.65;;
23402;SDS011;11874;48.228;11.684;2022-10-04T07:24:16;11.07;;;5.80;;
23402;SDS011;11874;48.228;11.684;2022-10-04T07:26:48;13.07;;;6.10;;
23402;SDS011;11874;48.228;11.684;2022-10-04T07:29:23;8.98;;;5.20;;
23402;SDS011;11874;48.228;11.684;2022-10-04T07:32:02;9.55;;;5.00;;
23402;SDS011;11874;48.228;11.684;2022-10-04T07:34:35;10.52;;;5.57;;
23402;SDS011;11874;48.228;11.684;2022-10-04T07:37:09;7.70;;;5.25;;
23402;SDS011;11874;48.228;11.684;2022-10-04T07:39:40;9.52;;;5.72;;
23402;SDS011;11874;48.228;11.684;2022-10-04T07:42:18;9.23;;;5.18;;
23402;SDS011;11874;48.228;11.684;2022-10-04T07:44:58;8.75;;;5.20;;
23402;SDS011;11874;48.228;11.684;2022-10-04T07:47:34;7.10;;;5.00;;
23402;SDS011;11874;48.228;11.684;2022-10-04T07:50:13;8.60;;;5.65;;
23402;SDS011;11874;48.228;11.684;2022-10-04T07:52:56;10.38;;;5.22;;
23402;SDS011;11874;48.228;11.684;2022-10-04T07:55:39;9.52;;;5.20;;
23402;SDS011;11874;48.228;11.684;2022-10-04T08:00:56;8.60;;;5.18;;
23402;SDS011;11874;48.228;11.684;2022-10-04T08:03:33;7.82;;;5.15;;
23402;SDS011;11874;48.228;11.684;2022-10-04T08:06:15;8.70;;;5.25;;
23402;SDS011;11874;48.228;11.684;2022-10-04T08:09:02;5.50;;;4.68;;
23402;SDS011;11874;48.228;11.684;2022-10-04T08:11:45;8.20;;;4.97;;
23402;SDS011;11874;48.228;11.684;2022-10-04T08:14:23;11.82;;;5.75;;
23402;SDS011;11874;48.228;11.684;2022-10-04T08:17:06;7.75;;;4.78;;
23402;SDS011;11874;48.228;11.684;2022-10-04T08:19:46;8.40;;;4.90;;
23402;SDS011;11874;48.228;11.684;2022-10-04T08:22:22;5.75;;;4.55;;
23402;SDS011;11874;48.228;11.684;2022-10-04T08:25:03;8.10;;;5.03;;
23402;SDS011;11874;48.228;11.684;2022-10-04T08:27:49;7.15;;;4.72;;
23402;SDS011;11874;48.228;11.684;2022-10-04T08:30:44;10.85;;;5.63;;
23402;SDS011;11874;48.228;11.684;2022-10-04T08:33:35;9.23;;;5.45;;
23402;SDS011;11874;48.228;11.684;2022-10-04T08:36:17;10.93;;;5.03;;
23402;SDS011;11874;48.228;11.684;2022-10-04T08:38:57;5.68;;;4.38;;
23402;SDS011;11874;48.228;11.684;2022-10-04T08:50:39;5.95;;;4.20;;
23402;SDS011;11874;48.228;11.684;2022-10-04T08:53:34;6.40;;;4.57;;
23402;SDS011;11874;48.228;11.684;2022-10-04T08:56:35;5.53;;;4.43;;
23402;SDS011;11874;48.228;11.684;2022-10-04T08:59:19;4.95;;;4.43;;
23402;SDS011;11874;48.228;11.684;2022-10-04T09:05:29;6.13;;;3.92;;
23402;SDS011;11874;48.228;11.684;2022-10-04T09:14:36;5.97;;;4.07;;
23402;SDS011;11874;48.228;11.684;2022-10-04T09:17:19;9.73;;;4.28;;
23402;SDS011;11874;48.228;11.684;2022-10-04T09:19:52;4.72;;;3.60;;
23402;SDS011;11874;48.228;11.684;2022-10-04T09:22:44;6.88;;;4.07;;
23402;SDS011;11874;48.228;11.684;2022-10-04T09:28:16;5.50;;;2.95;;
23402;SDS011;11874;48.228;11.684;2022-10-04T09:31:07;5.47;;;3.78;;
23402;SDS011;11874;48.228;11.684;2022-10-04T09:33:53;5.25;;;3.17;;
23402;SDS011;11874;48.228;11.684;2022-10-04T09:36:37;5.25;;;3.47;;
23402;SDS011;11874;48.228;11.684;2022-10-04T09:39:25;5.95;;;3.40;;
23402;SDS011;11874;48.228;11.684;2022-10-04T09:48:01;7.32;;;3.70;;
23402;SDS011;11874;48.228;11.684;2022-10-04T09:51:02;6.65;;;3.45;;
23402;SDS011;11874;48.228;11.684;2022-10-04T09:54:05;6.82;;;3.40;;
23402;SDS011;11874;48.228;11.684;2022-10-04T09:56:55;8.88;;;3.88;;
23402;SDS011;11874;48.228;11.684;2022-10-04T09:59:56;6.15;;;3.63;;
23402;SDS011;11874;48.228;11.684;2022-10-04T10:03:10;4.88;;;4.20;;
23402;SDS011;11874;48.228;11.684;2022-10-04T10:09:01;10.10;;;3.95;;
23402;SDS011;11874;48.228;11.684;2022-10-04T10:11:42;7.00;;;3.38;;
23402;SDS011;11874;48.228;11.684;2022-10-04T10:14:41;14.95;;;4.13;;
23402;SDS011;11874;48.228;11.684;2022-10-04T10:17:28;9.30;;;3.60;;
23402;SDS011;11874;48.228;11.684;2022-10-04T10:20:14;5.10;;;3.50;;
23402;SDS011;11874;48.228;11.684;2022-10-04T10:25:58;7.10;;;4.50;;
23402;SDS011;11874;48.228;11.684;2022-10-04T10:28:50;7.15;;;3.60;;
23402;SDS011;11874;48.228;11.684;2022-10-04T10:31:50;6.05;;;3.70;;
23402;SDS011;11874;48.228;11.684;2022-10-04T10:34:39;6.50;;;4.07;;
23402;SDS011;11874;48.228;11.684;2022-10-04T10:37:44;6.95;;;4.50;;
23402;SDS011;11874;48.228;11.684;2022-10-04T10:40:39;24.27;;;12.68;;
23402;SDS011;11874;48.228;11.684;2022-10-04T10:43:26;20.95;;;10.18;;
23402;SDS011;11874;48.228;11.684;2022-10-04T10:46:11;20.60;;;10.70;;
23402;SDS011;11874;48.228;11.684;2022-10-04T10:48:52;19.00;;;10.52;;
23402;SDS011;11874;48.228;11.684;2022-10-04T10:54:23;15.82;;;9.27;;
23402;SDS011;11874;48.228;11.684;2022-10-04T10:57:13;17.98;;;10.10;;
23402;SDS011;11874;48.228;11.684;2022-10-04T11:02:53;23.77;;;10.23;;
23402;SDS011;11874;48.228;11.684;2022-10-04T11:06:02;8.88;;;4.00;;
23402;SDS011;11874;48.228;11.684;2022-10-04T11:12:02;17.63;;;7.45;;
23402;SDS011;11874;48.228;11.684;2022-10-04T11:15:03;12.05;;;6.70;;
23402;SDS011;11874;48.228;11.684;2022-10-04T11:17:59;8.68;;;4.50;;
23402;SDS011;11874;48.228;11.684;2022-10-04T11:20:47;11.27;;;3.72;;
23402;SDS011;11874;48.228;11.684;2022-10-04T11:23:51;12.18;;;4.40;;
23402;SDS011;11874;48.228;11.684;2022-10-04T11:26:51;8.00;;;3.70;;
23402;SDS011;11874;48.228;11.684;2022-10-04T11:29:45;8.25;;;3.50;;
23402;SDS011;11874;48.228;11.684;2022-10-04T11:36:10;12.85;;;4.35;;
23402;SDS011;11874;48.228;11.684;2022-10-04T11:39:01;7.15;;;4.00;;
23402;SDS011;11874;48.228;11.684;2022-10-04T11:41:52;5.03;;;3.75;;
23402;SDS011;11874;48.228;11.684;2022-10-04T11:44:35;7.90;;;3.47;;
23402;SDS011;11874;48.228;11.684;2022-10-04T11:47:14;9.38;;;3.53;;
23402;SDS011;11874;48.228;11.684;2022-10-04T11:50:16;8.25;;;3.72;;
23402;SDS011;11874;48.228;11.684;2022-10-04T11:53:03;11.00;;;3.70;;
23402;SDS011;11874;48.228;11.684;2022-10-04T11:59:10;6.32;;;2.97;;
23402;SDS011;11874;48.228;11.684;2022-10-04T12:02:23;5.05;;;2.75;;
23402;SDS011;11874;48.228;11.684;2022-10-04T12:08:18;3.22;;;2.80;;
23402;SDS011;11874;48.228;11.684;2022-10-04T12:14:26;4.82;;;2.72;;
23402;SDS011;11874;48.228;11.684;2022-10-04T12:20:25;3.83;;;3.05;;
23402;SDS011;11874;48.228;11.684;2022-10-04T12:23:23;6.13;;;3.20;;
23402;SDS011;11874;48.228;11.684;2022-10-04T12:26:11;3.78;;;2.67;;
23402;SDS011;11874;48.228;11.684;2022-10-04T12:29:01;4.25;;;2.58;;
23402;SDS011;11874;48.228;11.684;2022-10-04T12:31:42;5.18;;;2.70;;
23402;SDS011;11874;48.228;11.684;2022-10-04T12:34:15;5.72;;;2.40;;
23402;SDS011;11874;48.228;11.684;2022-10-04T12:36:57;3.60;;;2.03;;
23402;SDS011;11874;48.228;11.684;2022-10-04T12:39:44;4.45;;;2.33;;
23402;SDS011;11874;48.228;11.684;2022-10-04T12:42:29;4.10;;;2.30;;
23402;SDS011;11874;48.228;11.684;2022-10-04T12:45:11;2.88;;;2.65;;
23402;SDS011;11874;48.228;11.684;2022-10-04T12:47:55;2.47;;;2.00;;
23402;SDS011;11874;48.228;11.684;2022-10-04T12:50:34;6.20;;;2.40;;
23402;SDS011;11874;48.228;11.684;2022-10-04T12:53:14;2.83;;;2.00;;
23402;SDS011;11874;48.228;11.684;2022-10-04T12:55:53;4.22;;;2.38;;
23402;SDS011;11874;48.228;11.684;2022-10-04T12:58:33;4.72;;;2.20;;
23402;SDS011;11874;48.228;11.684;2022-10-04T13:01:20;4.72;;;2.10;;
23402;SDS011;11874;48.228;11.684;2022-10-04T13:04:03;4.43;;;2.03;;
23402;SDS011;11874;48.228;11.684;2022-10-04T13:06:41;5.75;;;2.30;;
23402;SDS011;11874;48.228;11.684;2022-10-04T13:09:24;4.28;;;2.10;;
23402;SDS011;11874;48.228;11.684;2022-10-04T13:12:11;5.03;;;2.15;;
23402;SDS011;11874;48.228;11.684;2022-10-04T13:14:55;4.22;;;2.20;;
23402;SDS011;11874;48.228;11.684;2022-10-04T13:17:37;4.38;;;2.10;;
23402;SDS011;11874;48.228;11.684;2022-10-04T13:20:19;4.78;;;1.90;;
23402;SDS011;11874;48.228;11.684;2022-10-04T13:22:55;5.22;;;1.88;;
23402;SDS011;11874;48.228;11.684;2022-10-04T13:25:38;3.47;;;1.92;;
23402;SDS011;11874;48.228;11.684;2022-10-04T13:28:16;5.43;;;3.03;;
23402;SDS011;11874;48.228;11.684;2022-10-04T13:30:53;3.85;;;2.33;;
23402;SDS011;11874;48.228;11.684;2022-10-04T13:33:29;5.93;;;2.17;;
23402;SDS011;11874;48.228;11.684;2022-10-04T13:39:27;3.17;;;1.77;;
23402;SDS011;11874;48.228;11.684;2022-10-04T13:42:15;2.75;;;1.75;;
23402;SDS011;11874;48.228;11.684;2022-10-04T13:45:00;3.90;;;1.73;;
23402;SDS011;11874;48.228;11.684;2022-10-04T13:47:59;1.92;;;1.50;;
23402;SDS011;11874;48.228;11.684;2022-10-04T13:54:48;1.98;;;1.40;;
23402;SDS011;11874;48.228;11.684;2022-10-04T13:57:59;3.05;;;1.70;;
23402;SDS011;11874;48.228;11.684;2022-10-04T14:00:59;2.90;;;1.63;;
23402;SDS011;11874;48.228;11.684;2022-10-04T14:03:48;4.28;;;2.15;;
23402;SDS011;11874;48.228;11.684;2022-10-04T14:10:25;2.85;;;1.58;;
23402;SDS011;11874;48.228;11.684;2022-10-04T14:13:25;3.17;;;1.90;;
23402;SDS011;11874;48.228;11.684;2022-10-04T14:16:42;3.67;;;1.60;;
23402;SDS011;11874;48.228;11.684;2022-10-04T14:19:36;1.80;;;1.50;;
23402;SDS011;11874;48.228;11.684;2022-10-04T14:22:53;2.20;;;1.45;;
23402;SDS011;11874;48.228;11.684;2022-10-04T14:26:02;1.85;;;1.40;;
23402;SDS011;11874;48.228;11.684;2022-10-04T14:29:16;2.03;;;1.48;;
23402;SDS011;11874;48.228;11.684;2022-10-04T14:35:59;2.85;;;1.50;;
23402;SDS011;11874;48.228;11.684;2022-10-04T14:39:19;3.85;;;1.30;;
23402;SDS011;11874;48.228;11.684;2022-10-04T14:43:14;3.08;;;1.65;;
23402;SDS011;11874;48.228;11.684;2022-10-04T14:46:21;1.80;;;1.52;;
23402;SDS011;11874;48.228;11.684;2022-10-04T14:48:59;3.00;;;1.45;;
23402;SDS011;11874;48.228;11.684;2022-10-04T14:51:41;2.60;;;1.60;;
23402;SDS011;11874;48.228;11.684;2022-10-04T15:05:43;2.67;;;1.70;;
23402;SDS011;11874;48.228;11.684;2022-10-04T15:22:41;3.45;;;1.70;;
23402;SDS011;11874;48.228;11.684;2022-10-04T15:28:05;3.88;;;2.28;;
23402;SDS011;11874;48.228;11.684;2022-10-04T15:30:45;2.92;;;1.95;;
23402;SDS011;11874;48.228;11.684;2022-10-04T15:33:24;5.28;;;2.13;;
23402;SDS011;11874;48.228;11.684;2022-10-04T15:39:07;5.40;;;2.05;;
23402;SDS011;11874;48.228;11.684;2022-10-04T15:42:13;4.47;;;1.98;;
23402;SDS011;11874;48.228;11.684;2022-10-04T15:44:56;6.65;;;2.60;;
23402;SDS011;11874;48.228;11.684;2022-10-04T15:47:50;5.95;;;2.72;;
23402;SDS011;11874;48.228;11.684;2022-10-04T15:50:28;4.60;;;2.42;;
23402;SDS011;11874;48.228;11.684;2022-10-04T15:53:07;3.28;;;2.13;;
23402;SDS011;11874;48.228;11.684;2022-10-04T15:55:51;5.85;;;2.45;;
23402;SDS011;11874;48.228;11.684;2022-10-04T15:58:36;7.05;;;2.45;;
23402;SDS011;11874;48.228;11.684;2022-10-04T16:01:36;4.03;;;2.50;;
23402;SDS011;11874;48.228;11.684;2022-10-04T16:04:38;6.40;;;2.50;;
23402;SDS011;11874;48.228;11.684;2022-10-04T16:07:23;7.68;;;2.60;;
23402;SDS011;11874;48.228;11.684;2022-10-04T16:10:13;8.60;;;2.72;;
23402;SDS011;11874;48.228;11.684;2022-10-04T16:18:55;3.63;;;2.35;;
23402;SDS011;11874;48.228;11.684;2022-10-04T16:21:36;9.00;;;2.80;;
23402;SDS011;11874;48.228;11.684;2022-10-04T16:27:17;4.78;;;2.90;;
23402;SDS011;11874;48.228;11.684;2022-10-04T16:29:56;5.55;;;2.60;;
23402;SDS011;11874;48.228;11.684;2022-10-04T16:35:48;4.85;;;2.80;;
23402;SDS011;11874;48.228;11.684;2022-10-04T16:38:31;11.85;;;2.85;;
23402;SDS011;11874;48.228;11.684;2022-10-04T16:41:06;7.03;;;2.83;;
23402;SDS011;11874;48.228;11.684;2022-10-04T16:43:38;6.07;;;2.95;;
23402;SDS011;11874;48.228;11.684;2022-10-04T16:46:20;8.25;;;3.30;;
23402;SDS011;11874;48.228;11.684;2022-10-04T16:48:56;8.70;;;3.15;;
23402;SDS011;11874;48.228;11.684;2022-10-04T16:51:35;10.60;;;2.92;;
23402;SDS011;11874;48.228;11.684;2022-10-04T16:54:33;8.02;;;3.60;;
23402;SDS011;11874;48.228;11.684;2022-10-04T16:57:17;7.13;;;3.33;;
23402;SDS011;11874;48.228;11.684;2022-10-04T16:59:48;8.85;;;3.30;;
23402;SDS011;11874;48.228;11.684;2022-10-04T17:02:29;6.47;;;3.20;;
23402;SDS011;11874;48.228;11.684;2022-10-04T17:05:29;8.80;;;3.50;;
23402;SDS011;11874;48.228;11.684;2022-10-04T17:08:21;8.43;;;3.38;;
23402;SDS011;11874;48.228;11.684;2022-10-04T17:14:00;6.63;;;3.58;;
23402;SDS011;11874;48.228;11.684;2022-10-04T17:16:35;8.25;;;4.03;;
23402;SDS011;11874;48.228;11.684;2022-10-04T17:19:11;10.07;;;4.35;;
23402;SDS011;11874;48.228;11.684;2022-10-04T17:21:51;8.77;;;3.90;;
23402;SDS011;11874;48.228;11.684;2022-10-04T17:24:35;8.70;;;4.10;;
23402;SDS011;11874;48.228;11.684;2022-10-04T17:27:15;13.00;;;4.07;;
23402;SDS011;11874;48.228;11.684;2022-10-04T17:29:51;5.18;;;3.50;;
23402;SDS011;11874;48.228;11.684;2022-10-04T17:32:39;8.10;;;4.15;;
23402;SDS011;11874;48.228;11.684;2022-10-04T17:35:41;8.43;;;4.35;;
23402;SDS011;11874;48.228;11.684;2022-10-04T17:38:27;8.50;;;3.67;;
23402;SDS011;11874;48.228;11.684;2022-10-04T17:41:03;4.85;;;3.90;;
23402;SDS011;11874;48.228;11.684;2022-10-04T17:43:41;4.60;;;3.50;;
23402;SDS011;11874;48.228;11.684;2022-10-04T17:46:14;10.27;;;3.85;;
23402;SDS011;11874;48.228;11.684;2022-10-04T17:48:47;8.20;;;4.15;;
23402;SDS011;11874;48.228;11.684;2022-10-04T17:51:41;6.63;;;3.80;;
23402;SDS011;11874;48.228;11.684;2022-10-04T17:54:30;8.95;;;3.85;;
23402;SDS011;11874;48.228;11.684;2022-10-04T17:57:37;8.90;;;3.40;;
23402;SDS011;11874;48.228;11.684;2022-10-04T18:00:09;7.40;;;4.05;;
23402;SDS011;11874;48.228;11.684;2022-10-04T18:02:44;9.48;;;4.32;;
23402;SDS011;11874;48.228;11.684;2022-10-04T18:05:24;9.95;;;4.45;;
23402;SDS011;11874;48.228;11.684;2022-10-04T18:07:58;9.45;;;4.53;;
23402;SDS011;11874;48.228;11.684;2022-10-04T18:10:30;6.22;;;4.03;;
23402;SDS011;11874;48.228;11.684;2022-10-04T18:13:01;9.85;;;4.00;;
23402;SDS011;11874;48.228;11.684;2022-10-04T18:15:32;8.48;;;4.70;;
23402;SDS011;11874;48.228;11.684;2022-10-04T18:18:12;7.82;;;3.65;;
23402;SDS011;11874;48.228;11.684;2022-10-04T18:20:56;5.43;;;3.83;;
23402;SDS011;11874;48.228;11.684;2022-10-04T18:23:33;6.60;;;4.07;;